15:00
Airports
Links
Donate
Help keep this website running!
PayPal
Bitcoin
METAR
LFMD 161430Z AUTO 27018KT 230V300 CAVOK 17/05 Q1007 BECMG 25020G35KT
Current Weather Conditions at LFMD
VFR 14:30:00 16-01-18
Automated station, no observer
Altimeter:29.73 hg
Temp:17.0°c 63°f
Dew point:5.0°c 41°f
Wind:18 knots, 20.7 mph, 9 m/s, from 270°
Visibility:6.21 statute miles
(CAVOK)
Past METAR reports
VFR 14:00:00 16-01-18
Automated station, no observer
Altimeter:29.73 hg
Temp:17.0°c 63°f
Dew point:6.0°c 43°f
Wind:16 knots, 18.4 mph, 8 m/s, from 270°
Visibility:6.21 statute miles
(CAVOK)
No significant weather changes expected within 2 hours.
LFMD 161400Z AUTO 27016G35KT 220V320 CAVOK 17/06 Q1007 NOSIG
VFR 13:30:00 16-01-18
Automated station, no observer
Altimeter:29.73 hg
Temp:17.0°c 63°f
Dew point:5.0°c 41°f
Wind:17 knots, 19.6 mph, 9 m/s, from 270°
Visibility:6.21 statute miles
(CAVOK)
No significant weather changes expected within 2 hours.
LFMD 161330Z AUTO 27017G31KT 220V310 CAVOK 17/05 Q1007 NOSIG
VFR 13:00:00 16-01-18
Automated station, no observer
Altimeter:29.76 hg
Temp:17.0°c 63°f
Dew point:5.0°c 41°f
Wind:18 knots, 20.7 mph, 9 m/s, from 260°
Visibility:6.21 statute miles
(CAVOK)
No significant weather changes expected within 2 hours.
LFMD 161300Z AUTO 26018G32KT 220V320 CAVOK 17/05 Q1008 NOSIG
VFR 12:30:00 16-01-18
Automated station, no observer
Altimeter:29.76 hg
Temp:17.0°c 63°f
Dew point:5.0°c 41°f
Wind:21 knots, 24.2 mph, 11 m/s, from 270°
Visibility:6.21 statute miles
(CAVOK)
No significant weather changes expected within 2 hours.
LFMD 161230Z AUTO 27021G33KT 240V300 CAVOK 17/05 Q1008 NOSIG
VFR 12:00:00 16-01-18
Automated station, no observer
Altimeter:29.76 hg
Temp:17.0°c 63°f
Dew point:5.0°c 41°f
Wind:20 knots, 23 mph, 10 m/s, from 270°
Visibility:6.21 statute miles
(CAVOK)
No significant weather changes expected within 2 hours.
LFMD 161200Z AUTO 27020G38KT 240V300 CAVOK 17/05 Q1008 NOSIG
VFR 11:30:00 16-01-18
Automated station, no observer
Altimeter:29.79 hg
Temp:17.0°c 63°f
Dew point:5.0°c 41°f
Wind:18 knots, 20.7 mph, 9 m/s, from 270°
Visibility:6.21 statute miles
(CAVOK)
No significant weather changes expected within 2 hours.
LFMD 161130Z AUTO 27018G32KT 220V310 CAVOK 17/05 Q1009 NOSIG
TAF
TAF LFMD 161400Z 1615/1715 25020G35KT CAVOK TEMPO 1701/1705 25025G45KT
Forecast at LFMD
15:00 16-01-18 to 15:00 17-01-18
NSW
Wind:20 Knots from 250°
Visibility:6.21 statute miles
NSC
TEMPO 01:00 17-01-18 to 05:00 17-01-18
Wind:25 Knots from 250°